createdAt,value
2018-08-03T00:03:57.269Z,21.20
2018-08-03T00:06:26.333Z,21.20
2018-08-03T00:08:54.868Z,21.20
2018-08-03T00:11:23.453Z,21.10
2018-08-03T00:13:52.153Z,21.10
2018-08-03T00:16:21.405Z,21.10
2018-08-03T00:18:50.852Z,21.10
2018-08-03T00:21:19.966Z,21.10
2018-08-03T00:23:48.521Z,21.10
2018-08-03T00:26:17.053Z,21.00
2018-08-03T00:31:14.658Z,21.00
2018-08-03T00:33:43.247Z,21.00
2018-08-03T00:36:11.848Z,20.90
2018-08-03T00:38:40.405Z,20.80
2018-08-03T00:41:08.950Z,20.80
2018-08-03T00:43:37.545Z,20.90
2018-08-03T00:46:06.723Z,20.90
2018-08-03T00:48:35.309Z,20.90
2018-08-03T00:51:03.896Z,20.90
2018-08-03T00:53:32.464Z,20.90
2018-08-03T00:56:01.573Z,20.90
2018-08-03T00:58:30.140Z,20.80
2018-08-03T01:00:59.761Z,20.60
2018-08-03T01:03:28.322Z,20.50
2018-08-03T01:05:56.829Z,20.60
2018-08-03T01:08:25.409Z,20.50
2018-08-03T01:10:54.709Z,20.50
2018-08-03T01:13:23.256Z,20.60
2018-08-03T01:29:38.386Z,20.30
2018-08-03T01:32:06.917Z,20.30
2018-08-03T01:34:35.446Z,20.40
2018-08-03T01:37:03.982Z,20.40
2018-08-03T01:39:32.493Z,20.40
2018-08-03T01:42:01.057Z,20.40
2018-08-03T01:44:29.593Z,20.30
2018-08-03T01:51:54.728Z,20.20
2018-08-03T01:54:23.279Z,20.10
2018-08-03T01:56:51.797Z,20.10
2018-08-03T01:59:20.352Z,20.10
2018-08-03T02:01:48.834Z,20.10
2018-08-03T02:04:17.376Z,20.20
2018-08-03T02:06:45.889Z,20.10
2018-08-03T02:09:14.408Z,20.10
2018-08-03T02:11:42.933Z,20.10
2018-08-03T02:14:11.464Z,20.10
2018-08-03T02:16:39.993Z,20.10
2018-08-03T02:19:08.809Z,20.00
2018-08-03T02:21:37.317Z,20.00
2018-08-03T02:24:05.897Z,20.10
2018-08-03T02:26:34.435Z,20.00
2018-08-03T02:29:03.017Z,19.90
2018-08-03T02:31:31.546Z,19.90
2018-08-03T02:34:00.331Z,19.90
2018-08-03T02:36:29.836Z,20.00
2018-08-03T02:38:58.897Z,20.00
2018-08-03T02:41:27.413Z,20.00
2018-08-03T02:43:55.967Z,19.90
2018-08-03T02:46:24.481Z,19.90
2018-08-03T02:48:53.553Z,19.90
2018-08-03T02:51:22.739Z,19.90
2018-08-03T02:53:51.277Z,19.90
2018-08-03T02:56:19.830Z,19.70
2018-08-03T02:58:48.423Z,19.80
2018-08-03T03:01:17.585Z,19.80
2018-08-03T03:03:46.152Z,19.80
2018-08-03T03:06:14.709Z,19.70
2018-08-03T03:08:43.321Z,19.60
2018-08-03T03:11:11.865Z,19.70
2018-08-03T03:13:40.435Z,19.70
2018-08-03T03:16:09.636Z,19.60
2018-08-03T03:18:38.232Z,19.60
2018-08-03T03:21:07.860Z,19.50
2018-08-03T03:23:36.427Z,19.50
2018-08-03T03:26:05.732Z,19.60
2018-08-03T03:28:35.062Z,19.50
2018-08-03T03:31:03.613Z,19.50
2018-08-03T03:33:32.224Z,19.60
2018-08-03T03:36:02.052Z,19.60
2018-08-03T03:38:30.625Z,19.50
2018-08-03T03:40:59.208Z,19.50
2018-08-03T03:43:27.793Z,19.50
2018-08-03T03:45:57.067Z,19.60
2018-08-03T03:48:25.664Z,19.50
2018-08-03T03:50:54.227Z,19.40
2018-08-03T03:53:23.478Z,19.30
2018-08-03T03:55:56.313Z,19.40
2018-08-03T03:58:25.662Z,19.30
2018-08-03T04:00:54.201Z,19.10
2018-08-03T04:03:23.465Z,19.10
2018-08-03T04:05:52.060Z,19.10
2018-08-03T04:08:21.118Z,19.10
2018-08-03T04:10:49.965Z,19.00
2018-08-03T04:13:18.544Z,19.10
2018-08-03T04:15:47.128Z,19.20
2018-08-03T04:18:21.824Z,19.30
2018-08-03T04:20:52.285Z,19.30
2018-08-03T04:23:21.040Z,19.40
2018-08-03T04:25:49.666Z,19.40
2018-08-03T04:28:19.312Z,19.40
2018-08-03T04:30:47.936Z,19.40
2018-08-03T04:33:17.431Z,19.40
2018-08-03T04:35:45.973Z,19.40
2018-08-03T04:40:44.729Z,19.40
2018-08-03T04:43:13.901Z,19.50
2018-08-03T04:45:42.432Z,19.60
2018-08-03T04:48:11.445Z,19.70
2018-08-03T04:50:40.087Z,19.70
2018-08-03T04:53:09.922Z,19.70
2018-08-03T04:55:38.548Z,19.80
2018-08-03T04:58:07.071Z,19.70
2018-08-03T05:00:35.653Z,19.80
2018-08-03T05:03:04.198Z,19.70
2018-08-03T05:05:32.782Z,19.80
2018-08-03T05:08:01.356Z,19.90
2018-08-03T05:10:29.949Z,19.90
2018-08-03T05:12:58.489Z,19.90
2018-08-03T05:15:27.090Z,20.00
2018-08-03T05:17:55.653Z,20.10
2018-08-03T05:20:24.289Z,20.20
2018-08-03T05:25:21.182Z,20.20
2018-08-03T05:27:49.745Z,20.30
2018-08-03T05:30:18.375Z,20.40
2018-08-03T05:32:46.933Z,20.20
2018-08-03T05:35:15.518Z,20.30
2018-08-03T05:37:44.073Z,20.50
2018-08-03T05:40:12.953Z,21.00
2018-08-03T05:42:41.489Z,21.80
2018-08-03T05:45:10.433Z,22.70
2018-08-03T05:50:07.612Z,24.50
2018-08-03T05:52:36.218Z,24.80
2018-08-03T05:55:04.966Z,25.00
2018-08-03T05:57:33.509Z,25.30
2018-08-03T06:00:02.074Z,25.50
2018-08-03T06:02:30.704Z,26.00
2018-08-03T06:04:59.274Z,26.20
2018-08-03T06:07:28.757Z,26.40
2018-08-03T06:09:57.308Z,26.20
2018-08-03T06:14:54.194Z,25.90
2018-08-03T06:17:22.693Z,25.60
2018-08-03T06:19:51.277Z,25.30
2018-08-03T06:22:19.834Z,25.00
2018-08-03T06:24:48.436Z,24.80
2018-08-03T06:27:16.985Z,24.80
2018-08-03T06:32:13.782Z,24.80
2018-08-03T06:34:42.377Z,24.60
2018-08-03T06:37:10.931Z,24.70
2018-08-03T06:39:39.544Z,24.80
2018-08-03T06:44:36.337Z,24.90
2018-08-03T06:47:04.925Z,25.00
2018-08-03T06:49:33.542Z,25.10
2018-08-03T06:52:02.255Z,25.20
2018-08-03T06:54:30.838Z,25.50
2018-08-03T06:56:59.476Z,25.70
2018-08-03T06:59:28.055Z,25.80
2018-08-03T07:01:56.753Z,25.80
2018-08-03T07:04:25.324Z,25.90
2018-08-03T07:06:53.936Z,26.10
2018-08-03T07:09:22.588Z,26.30
2018-08-03T07:11:51.168Z,26.40
2018-08-03T07:14:19.753Z,26.60
2018-08-03T07:16:48.353Z,26.70
2018-08-03T07:19:16.909Z,26.80
2018-08-03T07:21:45.492Z,27.00
2018-08-03T07:24:14.073Z,27.10
2018-08-03T07:26:42.724Z,27.30
2018-08-03T07:29:11.279Z,27.30
2018-08-03T07:34:08.176Z,27.50
2018-08-03T07:36:36.790Z,27.50
2018-08-03T07:41:34.894Z,27.80
2018-08-03T07:44:03.552Z,27.90
2018-08-03T07:46:32.135Z,28.00
2018-08-03T07:49:00.748Z,28.20
2018-08-03T07:51:29.433Z,28.20
2018-08-03T07:53:57.992Z,28.20
2018-08-03T07:56:27.203Z,28.20
2018-08-03T07:58:55.774Z,28.40
2018-08-03T08:01:24.554Z,28.30
2018-08-03T08:03:53.849Z,28.40
2018-08-03T08:06:23.121Z,28.40
2018-08-03T08:08:52.034Z,28.40
2018-08-03T08:11:21.414Z,28.50
2018-08-03T08:13:50.042Z,28.60
2018-08-03T08:16:25.154Z,28.60
2018-08-03T08:18:54.367Z,28.60
2018-08-03T08:21:22.956Z,28.70
2018-08-03T08:23:52.144Z,28.60
2018-08-03T08:26:20.961Z,28.70
2018-08-03T08:28:49.540Z,28.80
2018-08-03T08:31:18.134Z,28.70
2018-08-03T08:33:46.713Z,28.80
2018-08-03T08:36:15.326Z,29.00
2018-08-03T08:38:43.952Z,29.10
2018-08-03T08:41:13.580Z,29.10
2018-08-03T08:43:42.882Z,29.10
2018-08-03T08:46:12.290Z,29.10
2018-08-03T08:48:40.846Z,29.10
2018-08-03T08:51:09.553Z,29.20
2018-08-03T08:53:38.885Z,29.10
2018-08-03T08:56:07.514Z,29.20
2018-08-03T08:58:36.056Z,29.20
2018-08-03T09:01:05.314Z,29.30
2018-08-03T09:03:34.401Z,29.40
2018-08-03T09:06:02.953Z,29.40
2018-08-03T09:08:31.510Z,29.50
2018-08-03T09:11:00.192Z,29.40
2018-08-03T09:13:29.488Z,29.50
2018-08-03T09:15:58.076Z,29.70
2018-08-03T09:18:26.689Z,29.80
2018-08-03T09:20:55.757Z,29.80
2018-08-03T09:23:24.669Z,29.80
2018-08-03T09:25:55.578Z,29.90
2018-08-03T09:28:24.308Z,29.90
2018-08-03T09:30:52.927Z,29.90
2018-08-03T09:33:22.449Z,30.00
2018-08-03T09:35:51.096Z,30.00
2018-08-03T09:40:47.874Z,30.30
2018-08-03T09:43:16.685Z,30.20
2018-08-03T09:45:45.301Z,30.20
2018-08-03T09:48:14.593Z,30.20
2018-08-03T09:50:44.138Z,30.30
2018-08-03T09:53:12.809Z,30.20
2018-08-03T09:55:41.349Z,30.30
2018-08-03T09:58:09.925Z,30.50
2018-08-03T10:00:43.776Z,30.50
2018-08-03T10:03:12.385Z,30.60
2018-08-03T10:08:09.173Z,30.70
2018-08-03T10:10:37.728Z,30.60
2018-08-03T10:13:06.309Z,30.40
2018-08-03T10:18:03.073Z,30.70
2018-08-03T10:25:28.152Z,30.80
2018-08-03T10:27:56.740Z,31.00
2018-08-03T10:30:25.962Z,31.10
2018-08-03T10:32:54.565Z,31.10
2018-08-03T10:35:24.237Z,31.00
2018-08-03T10:37:52.846Z,31.00
2018-08-03T10:40:21.380Z,31.10
2018-08-03T10:42:49.992Z,31.30
2018-08-03T10:45:18.578Z,31.30
2018-08-03T10:47:47.157Z,31.40
2018-08-03T10:50:16.916Z,31.50
2018-08-03T10:57:42.353Z,31.50
2018-08-03T11:00:16.375Z,31.50
2018-08-03T11:05:13.181Z,31.50
2018-08-03T11:07:41.764Z,31.50
2018-08-03T11:10:10.338Z,31.50
2018-08-03T11:12:38.905Z,31.50
2018-08-03T11:15:07.461Z,31.50
2018-08-03T11:17:36.681Z,31.60
2018-08-03T11:20:05.402Z,31.60
2018-08-03T11:22:34.033Z,31.70
2018-08-03T11:25:02.966Z,31.90
2018-08-03T11:27:31.536Z,32.00
2018-08-03T11:30:00.187Z,32.00
2018-08-03T11:32:29.536Z,32.00
2018-08-03T11:34:58.084Z,32.00
2018-08-03T11:39:55.661Z,32.00
2018-08-03T11:42:24.264Z,32.00
2018-08-03T11:44:52.824Z,32.00
2018-08-03T11:47:21.453Z,32.20
2018-08-03T11:49:50.071Z,32.40
2018-08-03T11:52:18.704Z,32.40
2018-08-03T11:54:47.252Z,32.40
2018-08-03T11:57:15.845Z,32.40
2018-08-03T11:59:44.404Z,32.30
2018-08-03T12:02:13.005Z,32.20
2018-08-03T12:04:42.501Z,32.30
2018-08-03T12:07:11.385Z,32.30
2018-08-03T12:09:39.966Z,32.40
2018-08-03T12:12:08.873Z,32.60
2018-08-03T12:14:38.030Z,32.50
2018-08-03T12:17:06.654Z,32.40
2018-08-03T12:19:35.249Z,32.40
2018-08-03T12:22:04.625Z,32.30
2018-08-03T12:24:33.335Z,32.40
2018-08-03T12:27:02.577Z,32.40
2018-08-03T12:29:31.385Z,32.40
2018-08-03T12:32:00.157Z,32.30
2018-08-03T12:34:28.801Z,32.50
2018-08-03T12:36:57.473Z,32.70
2018-08-03T12:39:26.113Z,32.60
2018-08-03T12:41:54.694Z,32.50
2018-08-03T12:44:23.517Z,32.50
2018-08-03T12:46:52.104Z,32.60
2018-08-03T12:49:20.891Z,32.80
2018-08-03T12:51:49.474Z,32.70
2018-08-03T12:54:18.037Z,32.90
2018-08-03T12:56:46.640Z,33.00
2018-08-03T12:59:15.735Z,33.00
2018-08-03T13:01:45.178Z,32.90
2018-08-03T13:04:13.935Z,33.00
2018-08-03T13:06:42.616Z,32.80
2018-08-03T13:09:11.284Z,32.90
2018-08-03T13:11:40.097Z,32.80
2018-08-03T13:14:08.897Z,32.80
2018-08-03T13:16:37.785Z,32.80
2018-08-03T13:19:07.505Z,32.80
2018-08-03T13:21:38.521Z,33.00
2018-08-03T13:24:07.542Z,33.10
2018-08-03T13:26:37.181Z,33.10
2018-08-03T13:31:34.122Z,33.20
2018-08-03T13:34:02.741Z,33.30
2018-08-03T13:36:32.581Z,33.30
2018-08-03T13:39:01.750Z,33.30
2018-08-03T13:41:30.372Z,33.30
2018-08-03T13:43:59.471Z,33.20
2018-08-03T13:46:28.512Z,33.30
2018-08-03T13:51:25.301Z,33.20
2018-08-03T13:53:53.853Z,33.30
2018-08-03T13:56:22.389Z,33.40
2018-08-03T13:58:50.933Z,33.40
2018-08-03T14:01:30.842Z,33.40
2018-08-03T14:03:59.446Z,33.40
2018-08-03T14:06:27.978Z,33.40
2018-08-03T14:08:56.549Z,33.40
2018-08-03T14:11:25.108Z,33.20
2018-08-03T14:18:50.548Z,33.20
2018-08-03T14:21:19.785Z,33.20
2018-08-03T14:23:48.352Z,33.20
2018-08-03T14:26:16.903Z,33.20
2018-08-03T14:28:46.200Z,33.10
2018-08-03T14:31:15.020Z,33.10
2018-08-03T14:33:43.962Z,33.20
2018-08-03T14:36:12.964Z,33.20
2018-08-03T14:38:41.997Z,33.20
2018-08-03T14:41:10.538Z,33.40
2018-08-03T14:43:39.097Z,33.40
2018-08-03T14:46:07.706Z,33.40
2018-08-03T14:48:36.277Z,33.30
2018-08-03T14:51:04.945Z,33.20
2018-08-03T14:53:33.545Z,33.20
2018-08-03T14:56:02.100Z,33.30
2018-08-03T14:58:30.653Z,33.00
2018-08-03T15:00:59.182Z,32.90
2018-08-03T15:03:27.729Z,32.90
2018-08-03T15:08:24.453Z,32.60
2018-08-03T15:10:53.026Z,32.50
2018-08-03T15:13:21.576Z,32.40
2018-08-03T15:15:50.125Z,32.50
2018-08-03T15:18:18.680Z,32.40
2018-08-03T15:20:47.289Z,32.40
2018-08-03T15:23:15.866Z,32.60
2018-08-03T15:25:44.420Z,32.70
2018-08-03T15:28:12.973Z,32.80
2018-08-03T15:33:09.744Z,33.10
2018-08-03T15:35:38.338Z,33.20
2018-08-03T15:38:07.141Z,33.10
2018-08-03T15:40:35.732Z,33.20
2018-08-03T15:43:04.265Z,33.30
2018-08-03T15:45:32.893Z,33.40
2018-08-03T15:48:02.494Z,33.40
2018-08-03T15:50:31.125Z,33.20
2018-08-03T15:53:00.258Z,33.30
2018-08-03T15:55:28.835Z,33.40
2018-08-03T15:57:57.379Z,33.30
2018-08-03T16:00:25.960Z,33.30
2018-08-03T16:02:54.567Z,33.30
2018-08-03T16:05:23.198Z,33.30
2018-08-03T16:07:51.773Z,33.30
2018-08-03T16:10:20.366Z,33.20
2018-08-03T16:12:48.985Z,33.20
2018-08-03T16:15:18.261Z,33.20
2018-08-03T16:17:46.940Z,33.30
2018-08-03T16:20:15.517Z,33.10
2018-08-03T16:22:44.648Z,33.10
2018-08-03T16:25:13.249Z,33.10
2018-08-03T16:27:41.886Z,33.10
2018-08-03T16:30:11.133Z,32.90
2018-08-03T16:32:40.371Z,32.90
2018-08-03T16:35:09.832Z,32.80
2018-08-03T16:37:38.374Z,32.70
2018-08-03T16:40:08.231Z,32.60
2018-08-03T16:42:36.972Z,32.70
2018-08-03T16:45:07.292Z,32.70
2018-08-03T16:47:35.981Z,32.70
2018-08-03T16:50:05.264Z,32.60
2018-08-03T16:52:33.801Z,32.60
2018-08-03T16:55:02.385Z,32.60
2018-08-03T16:57:30.905Z,32.50
2018-08-03T17:02:28.183Z,32.40
2018-08-03T17:04:56.786Z,32.40
2018-08-03T17:07:25.984Z,32.30
2018-08-03T17:09:54.556Z,32.30
2018-08-03T17:12:23.638Z,32.20
2018-08-03T17:14:52.176Z,32.00
2018-08-03T17:17:20.729Z,32.20
2018-08-03T17:19:50.115Z,32.10
2018-08-03T17:27:15.603Z,32.00
2018-08-03T17:29:44.158Z,32.00
2018-08-03T17:32:12.673Z,31.90
2018-08-03T17:34:41.921Z,31.90
2018-08-03T17:42:06.872Z,31.60
2018-08-03T17:44:35.457Z,31.50
2018-08-03T17:47:04.616Z,31.20
2018-08-03T17:49:33.656Z,31.10
2018-08-03T17:52:02.213Z,31.00
2018-08-03T17:56:59.092Z,30.70
2018-08-03T17:59:28.917Z,30.50
2018-08-03T18:01:57.481Z,30.30
2018-08-03T18:04:26.022Z,30.10
2018-08-03T18:06:54.641Z,30.00
2018-08-03T18:11:51.457Z,29.70
2018-08-03T18:14:21.271Z,29.50
2018-08-03T18:16:49.865Z,29.40
2018-08-03T18:19:18.410Z,29.10
2018-08-03T18:21:47.037Z,29.10
2018-08-03T18:24:15.569Z,29.10
2018-08-03T18:26:44.914Z,29.00
2018-08-03T18:29:13.507Z,29.00
2018-08-03T18:31:42.594Z,28.90
2018-08-03T18:34:11.129Z,28.80
2018-08-03T18:36:39.713Z,28.80
2018-08-03T18:39:10.985Z,28.70
2018-08-03T18:41:39.610Z,28.60
2018-08-03T18:44:09.055Z,28.50
2018-08-03T18:46:37.688Z,28.40
2018-08-03T18:49:06.230Z,28.40
2018-08-03T18:51:34.939Z,28.30
2018-08-03T18:54:03.626Z,28.10
2018-08-03T18:56:33.123Z,28.00
2018-08-03T18:59:02.270Z,27.80
2018-08-03T19:01:30.861Z,27.60
2018-08-03T19:06:27.669Z,27.50
2018-08-03T19:08:56.264Z,27.30
2018-08-03T19:11:25.227Z,27.30
2018-08-03T19:13:53.810Z,27.30
2018-08-03T19:16:22.400Z,27.10
2018-08-03T19:18:50.957Z,27.00
2018-08-03T19:23:48.240Z,26.80
2018-08-03T19:26:18.001Z,26.90
2018-08-03T19:28:46.574Z,26.80
2018-08-03T19:31:15.765Z,26.70
2018-08-03T19:33:44.312Z,26.60
2018-08-03T19:36:14.187Z,26.50
2018-08-03T19:38:43.532Z,26.40
2018-08-03T19:41:12.337Z,26.30
2018-08-03T19:43:40.881Z,26.30
2018-08-03T19:46:09.481Z,26.20
2018-08-03T19:51:08.062Z,26.00
2018-08-03T19:53:37.329Z,26.00
2018-08-03T19:56:06.376Z,25.90
2018-08-03T20:01:03.228Z,25.70
2018-08-03T20:03:31.881Z,25.60
2018-08-03T20:06:00.618Z,25.50
2018-08-03T20:10:58.626Z,25.40
2018-08-03T20:13:27.244Z,25.40
2018-08-03T20:15:55.917Z,25.40
2018-08-03T20:18:25.071Z,25.40
2018-08-03T20:20:53.817Z,25.40
2018-08-03T20:23:22.420Z,25.30
2018-08-03T20:25:51.072Z,25.20
2018-08-03T20:28:19.756Z,25.00
2018-08-03T20:30:48.541Z,25.00
2018-08-03T20:33:17.395Z,24.80
2018-08-03T20:38:14.292Z,24.90
2018-08-03T20:40:43.150Z,24.80
2018-08-03T20:45:41.029Z,24.70
2018-08-03T20:50:38.801Z,24.80
2018-08-03T20:53:07.384Z,24.70
2018-08-03T20:55:35.877Z,24.60
2018-08-03T21:00:32.656Z,24.50
2018-08-03T21:03:02.029Z,24.40
2018-08-03T21:05:31.229Z,24.40
2018-08-03T21:07:59.790Z,24.40
2018-08-03T21:10:28.372Z,24.40
2018-08-03T21:12:57.162Z,24.40
2018-08-03T21:15:25.822Z,24.30
2018-08-03T21:17:54.409Z,24.20
2018-08-03T21:20:22.950Z,24.20
2018-08-03T21:25:20.381Z,24.10
2018-08-03T21:27:48.928Z,24.10
2018-08-03T21:30:17.499Z,24.10
2018-08-03T21:32:46.058Z,24.00
2018-08-03T21:35:15.475Z,23.90
2018-08-03T21:40:12.837Z,23.80
2018-08-03T21:42:41.378Z,23.80
2018-08-03T21:45:09.907Z,23.70
2018-08-03T21:47:38.954Z,23.60
2018-08-03T21:50:07.585Z,23.60
2018-08-03T21:52:37.140Z,23.60
2018-08-03T21:55:05.812Z,23.60
2018-08-03T21:57:34.952Z,23.50
2018-08-03T22:00:04.133Z,23.50
2018-08-03T22:02:32.731Z,23.40
2018-08-03T22:05:01.296Z,23.40
2018-08-03T22:07:29.914Z,23.30
2018-08-03T22:09:58.480Z,23.20
2018-08-03T22:12:27.070Z,23.20
2018-08-03T22:14:55.616Z,23.00
2018-08-03T22:17:25.218Z,23.00
2018-08-03T22:19:53.764Z,23.00
2018-08-03T22:22:22.348Z,22.80
2018-08-03T22:27:19.313Z,22.80
2018-08-03T22:29:47.946Z,22.80
2018-08-03T22:32:16.550Z,22.70
2018-08-03T22:34:45.570Z,22.80
2018-08-03T22:37:14.954Z,22.90
2018-08-03T22:39:44.037Z,22.90
2018-08-03T22:42:12.633Z,22.90
2018-08-03T22:44:41.222Z,22.70
2018-08-03T22:47:09.795Z,22.70
2018-08-03T22:49:38.858Z,22.80
2018-08-03T22:52:08.380Z,22.70
2018-08-03T22:54:37.654Z,22.70
2018-08-03T22:57:06.236Z,22.70
2018-08-03T22:59:34.791Z,22.70
2018-08-03T23:02:03.460Z,22.40
2018-08-03T23:04:32.035Z,22.40
2018-08-03T23:07:00.647Z,22.40
2018-08-03T23:09:29.191Z,22.50
2018-08-03T23:11:57.805Z,22.50
2018-08-03T23:14:27.139Z,22.40
2018-08-03T23:16:55.740Z,22.40
2018-08-03T23:19:24.876Z,22.40
2018-08-03T23:21:53.476Z,22.40
2018-08-03T23:24:23.117Z,22.20
2018-08-03T23:26:51.870Z,22.30
2018-08-03T23:29:21.066Z,22.30
2018-08-03T23:31:50.729Z,22.30
2018-08-03T23:34:19.309Z,22.20
2018-08-03T23:36:47.882Z,22.20
2018-08-03T23:41:45.610Z,22.10
2018-08-03T23:44:14.420Z,22.10
2018-08-03T23:46:43.763Z,21.90
2018-08-03T23:51:40.557Z,21.80
2018-08-03T23:54:09.755Z,21.70
2018-08-03T23:56:38.874Z,21.80
2018-08-03T23:59:08.254Z,21.90
